Weather History for Visby Flygplats, Sweden

Change the Weather History Date:

Friday, February 15, 2013

  Actual Average Record
Temperature  
Mean Temperature 35 °F -  
Max Temperature 38 °F 36 °F - ()
Min Temperature 32 °F 26 °F - ()
Degree Days  
Heating Degree Days 30    
Moisture  
Dew Point 33 °F    
Average Humidity 96    
Maximum Humidity 100    
Minimum Humidity 83    
Precipitation  
Precipitation 0.00 in 0.04 in - ()
Sea Level Pressure  
Sea Level Pressure 30.25 in    
Wind  
Wind Speed 6 mph ()    
Max Wind Speed 9 mph    
Max Gust Speed -    
Visibility 3.6 miles    
Events Rain , Snow    
T = Trace of Precipitation, MM = Missing Value Source: Averaged Metar Reports

Daily Weather History Graph

Daily Weather History Graph

Search for Another Location

Airport:

Trip Planner

Search our weather history database for the weather conditions in past years. The results will help you decide how hot, cold, wet, or windy it might be!

Date:

Astronomy

Feb. 15, 2013 Rise Set
Actual Time 7:16 AM CET 4:45 PM CET
Civil Twilight 6:36 AM CET 5:26 PM CET
Nautical Twilight 5:50 AM CET 6:12 PM CET
Astronomical Twilight 5:05 AM CET 6:57 PM CET
Moon 8:24 AM CET (2/15) 11:55 PM CET (2/15)
Length of Visible Light 10h 50m
Length of Day
9h 29m
Waxing Crescent, 28% of the Moon is Illuminated
Feb 15
Waxing Crescent
Feb 17
First Quarter
Feb 25
Full
Mar 4
Last Quarter
Mar 11
New

Hourly Weather History & Observations

Time (CET) Temp. Windchill Dew Point Humidity Pressure Visibility Wind Dir Wind Speed Gust Speed Precip Events Conditions
12:00 AM 32 °F - 31 °F 93% 30.28 in 5 mi East 4.5 mph - -   Mist
12:20 AM 32.0 °F 25.6 °F 30.2 °F 93% 30.27 in 5.0 mi East 6.9 mph - N/A   Overcast
12:50 AM 32.0 °F 25.6 °F 30.2 °F 93% 30.24 in 5.0 mi East 6.9 mph - N/A   Overcast
1:00 AM 32 °F - 30 °F 90% 30.27 in 6 mi East 4.5 mph - -   Mist
1:20 AM 32.0 °F 25.6 °F 30.2 °F 93% 30.24 in 6.2 mi East 6.9 mph - N/A   Overcast
1:50 AM 32.0 °F 25.6 °F 30.2 °F 93% 30.24 in 6.2 mi East 6.9 mph - N/A   Overcast
2:00 AM 33 °F - 30 °F 83% 30.27 in 7 mi East 6.7 mph - -   Overcast
2:20 AM 32.0 °F 24.8 °F 30.2 °F 93% 30.24 in 6.2 mi East 8.1 mph - N/A   Overcast
2:50 AM 33.8 °F 27.7 °F 32.0 °F 93% 30.24 in 5.6 mi East 6.9 mph - N/A   Overcast
3:00 AM 33 °F - 32 °F 92% 30.26 in 5 mi East 6.7 mph - -   Mist
3:20 AM 33.8 °F 27.7 °F 32.0 °F 93% 30.24 in 4.3 mi East 6.9 mph - N/A   Overcast
3:50 AM 33.8 °F 28.6 °F 32.0 °F 93% 30.24 in 3.7 mi East 5.8 mph - N/A   Overcast
4:20 AM 33.8 °F 28.6 °F 33.8 °F 100% 30.24 in 3.1 mi East 5.8 mph - N/A   Overcast
4:50 AM 33.8 °F 28.6 °F 33.8 °F 100% 30.21 in - East 5.8 mph - N/A   Overcast
5:00 AM 33 °F - 33 °F 99% 30.25 in 3 mi East 4.5 mph - -   Mist
5:20 AM 33.8 °F 28.6 °F 33.8 °F 100% 30.24 in 3.1 mi ESE 5.8 mph - N/A   Overcast
5:50 AM 33.8 °F 28.6 °F 33.8 °F 100% 30.21 in 2.2 mi East 5.8 mph - N/A Rain Light Rain
6:00 AM 33 °F - 33 °F 99% 30.25 in 2 mi East 4.5 mph - - Snow Snow Grains
6:20 AM 33.8 °F 27.7 °F 33.8 °F 100% 30.21 in - ESE 6.9 mph - N/A   Mostly Cloudy
6:50 AM 33.8 °F 27.7 °F 33.8 °F 100% 30.24 in - SE 6.9 mph - N/A   Mostly Cloudy
7:00 AM 33 °F - 33 °F 100% 30.25 in 2 mi ESE 6.7 mph - -   Unknown Precipitation
7:20 AM 33.8 °F 27.7 °F 33.8 °F 100% 30.24 in 2.5 mi SE 6.9 mph - N/A   Mostly Cloudy
7:50 AM 33.8 °F 27.0 °F 33.8 °F 100% 30.24 in 2.5 mi ESE 8.1 mph - N/A   Mostly Cloudy
8:00 AM 34 °F - 33 °F 96% 30.25 in 2 mi ESE 6.7 mph - -   Mist
8:20 AM 33.8 °F 27.0 °F 33.8 °F 100% 30.24 in 2.2 mi SE 8.1 mph - N/A   Mostly Cloudy
8:50 AM 33.8 °F 27.7 °F 33.8 °F 100% 30.24 in 2.2 mi SE 6.9 mph - N/A   Mostly Cloudy
9:00 AM 34 °F - 34 °F 98% 30.26 in 3 mi SE 6.7 mph - -   Mist
9:20 AM 33.8 °F 27.7 °F 33.8 °F 100% 30.24 in 2.2 mi SE 6.9 mph - N/A   Mostly Cloudy
9:50 AM 33.8 °F 27.7 °F 33.8 °F 100% 30.24 in 1.9 mi SE 6.9 mph - N/A   Mostly Cloudy
10:20 AM 33.8 °F 27.0 °F 33.8 °F 100% 30.24 in 2.2 mi SE 8.1 mph - N/A   Mostly Cloudy
10:50 AM 33.8 °F 27.0 °F 33.8 °F 100% 30.24 in 3.1 mi SE 8.1 mph - N/A   Mostly Cloudy
11:20 AM 33.8 °F 27.7 °F 33.8 °F 100% 30.24 in 3.1 mi SE 6.9 mph - N/A   Mostly Cloudy
11:50 AM 35.6 °F 29.2 °F 33.8 °F 93% 30.24 in 4.3 mi SE 8.1 mph - N/A   Mostly Cloudy
12:00 PM 35 °F - 33 °F 91% 30.27 in 5 mi SE 6.7 mph - -   Mist
12:20 PM 35.6 °F 29.9 °F 33.8 °F 93% 30.24 in 3.7 mi SE 6.9 mph - N/A   Mostly Cloudy
12:50 PM 35.6 °F 29.9 °F 33.8 °F 93% 30.24 in 4.3 mi SE 6.9 mph - N/A   Mostly Cloudy
1:00 PM 35 °F - 33 °F 89% 30.27 in 5 mi SE 6.7 mph - -   Mist
1:20 PM 35.6 °F 29.9 °F 33.8 °F 93% 30.24 in 4.3 mi SSE 6.9 mph - N/A   Mostly Cloudy
1:50 PM 33.8 °F 28.6 °F 33.8 °F 100% 30.24 in 3.1 mi SE 5.8 mph - N/A   Mostly Cloudy
2:00 PM 34 °F - 33 °F 95% 30.27 in 2 mi SE 6.7 mph - -   Mist
2:20 PM 33.8 °F 27.7 °F 33.8 °F 100% 30.24 in 1.9 mi SE 6.9 mph - N/A   Light Drizzle
2:50 PM 33.8 °F 27.7 °F 33.8 °F 100% 30.24 in 1.6 mi SSE 6.9 mph - N/A   Light Drizzle
3:00 PM 34 °F - 33 °F 95% 30.27 in 1 mi SSE 8.9 mph - - Rain Light Rain
3:20 PM 33.8 °F 27.0 °F 33.8 °F 100% 30.24 in 2.2 mi South 8.1 mph - N/A Rain Light Rain
3:50 PM 33.8 °F 28.6 °F 33.8 °F 100% 30.24 in 2.2 mi SSE 5.8 mph - N/A   Light Drizzle
4:20 PM 33.8 °F 27.7 °F 32.0 °F 93% 30.24 in 3.1 mi South 6.9 mph - N/A   Light Drizzle
4:50 PM 33.8 °F 29.6 °F 32.0 °F 93% 30.24 in 3.1 mi SE 4.6 mph - N/A   Mostly Cloudy
5:00 PM 33 °F - 33 °F 97% 30.27 in 3 mi SE 4.5 mph - -   Unknown Precipitation
5:20 PM 33.8 °F 28.6 °F 32.0 °F 93% 30.24 in 3.1 mi SE 5.8 mph - N/A   Light Drizzle
5:50 PM 33.8 °F 28.6 °F 32.0 °F 93% 30.27 in - SE 5.8 mph - N/A   Light Drizzle
6:00 PM 33 °F - 33 °F 98% 30.28 in 3 mi SE 4.5 mph - -   Mist
6:20 PM 33.8 °F 28.6 °F 32.0 °F 93% 30.27 in 4.3 mi SE 5.8 mph - N/A   Light Drizzle
6:50 PM 33.8 °F 28.6 °F 32.0 °F 93% 30.27 in 4.3 mi SE 5.8 mph - N/A   Light Drizzle
7:00 PM 33 °F - 33 °F 98% 30.29 in 2 mi ESE 4.5 mph - -   Mist
7:20 PM 33.8 °F 28.6 °F 33.8 °F 100% 30.27 in 5.6 mi SE 5.8 mph - N/A   Mostly Cloudy
7:50 PM 33.8 °F 28.6 °F 33.8 °F 100% 30.27 in 5.6 mi SSE 5.8 mph - N/A   Mostly Cloudy
8:00 PM 33 °F - 33 °F 98% 30.29 in 2 mi SE 4.5 mph - -   Mist
8:20 PM 33.8 °F 28.6 °F 32.0 °F 93% 30.27 in 5.6 mi SE 5.8 mph - N/A   Mostly Cloudy
8:50 PM 33.8 °F 28.6 °F 32.0 °F 93% 30.27 in 5.6 mi SE 5.8 mph - N/A   Mostly Cloudy
9:00 PM 33 °F - 33 °F 99% 30.30 in 2 mi SE 4.5 mph - -   Mist
9:20 PM 33.8 °F 27.0 °F 33.8 °F 100% 30.27 in 5.0 mi SE 8.1 mph - N/A   Mostly Cloudy
9:50 PM 33.8 °F 27.7 °F 32.0 °F 93% 30.27 in 5.6 mi SE 6.9 mph - N/A   Mostly Cloudy
10:20 PM 33.8 °F 27.7 °F 32.0 °F 93% 30.27 in 5.0 mi SE 6.9 mph - N/A   Mostly Cloudy
10:50 PM 33.8 °F 27.7 °F 32.0 °F 93% 30.27 in 5.6 mi SE 6.9 mph - N/A   Mostly Cloudy
11:00 PM 33 °F - 33 °F 99% 30.30 in 2 mi ESE 4.5 mph - -   Mist
11:20 PM 32.0 °F 26.4 °F 32.0 °F 100% 30.27 in - SE 5.8 mph - N/A   Overcast
11:50 PM 32.0 °F 25.6 °F 32.0 °F 100% 30.27 in 1.5 mi ESE 6.9 mph - N/A   Overcast